createdAt,value
2023-06-07T00:01:46.961Z,100602.25
2023-06-07T00:04:49.585Z,100593.41
2023-06-07T00:07:53.074Z,100593.19
2023-06-07T00:10:55.175Z,100587.56
2023-06-07T00:13:58.073Z,100588.38
2023-06-07T00:17:00.748Z,100574.78
2023-06-07T00:20:04.447Z,100580.75
2023-06-07T00:23:08.014Z,100584.16
2023-06-07T00:26:10.193Z,100577.44
2023-06-07T00:29:13.044Z,100576.75
2023-06-07T00:32:15.618Z,100575.53
2023-06-07T00:35:17.966Z,100577.75
2023-06-07T00:38:20.171Z,100573.06
2023-06-07T00:41:23.566Z,100583.69
2023-06-07T00:44:27.726Z,100579.00
2023-06-07T00:47:30.897Z,100583.06
2023-06-07T00:50:39.374Z,100584.34
2023-06-07T00:53:44.239Z,100585.53
2023-06-07T00:56:51.688Z,100588.56
2023-06-07T00:59:54.309Z,100578.19
2023-06-07T01:02:58.454Z,100583.66
2023-06-07T01:06:03.915Z,100584.50
2023-06-07T01:09:15.205Z,100585.16
2023-06-07T01:12:19.528Z,100586.00
2023-06-07T01:15:22.299Z,100567.91
2023-06-07T01:18:25.931Z,100573.97
2023-06-07T01:21:27.932Z,100577.28
2023-06-07T01:24:32.039Z,100566.22
2023-06-07T01:27:34.977Z,100565.41
2023-06-07T01:30:37.602Z,100558.53
2023-06-07T01:33:41.666Z,100556.84
2023-06-07T01:36:44.963Z,100560.75
2023-06-07T01:39:49.431Z,100562.75
2023-06-07T01:42:53.232Z,100557.06
2023-06-07T01:45:55.622Z,100557.31
2023-06-07T01:48:57.812Z,100540.19
2023-06-07T01:52:00.157Z,100550.56
2023-06-07T01:55:05.330Z,100557.31
2023-06-07T01:58:32.141Z,100555.41
2023-06-07T02:02:03.256Z,100552.69
2023-06-07T02:05:13.084Z,100556.44
2023-06-07T02:08:25.434Z,100549.50
2023-06-07T02:11:29.024Z,100553.25
2023-06-07T02:14:31.969Z,100556.66
2023-06-07T02:17:34.938Z,100550.72
2023-06-07T02:20:38.744Z,100539.38
2023-06-07T02:23:40.847Z,100548.69
2023-06-07T02:26:43.815Z,100552.97
2023-06-07T02:29:50.364Z,100548.25
2023-06-07T02:32:55.187Z,100550.34
2023-06-07T02:35:57.546Z,100551.28
2023-06-07T02:39:00.145Z,100557.41
2023-06-07T02:42:03.279Z,100543.59
2023-06-07T02:45:06.123Z,100543.41
2023-06-07T02:48:08.659Z,100553.22
2023-06-07T02:51:11.099Z,100545.63
2023-06-07T02:54:15.577Z,100542.22
2023-06-07T02:57:19.141Z,100550.34
2023-06-07T03:00:21.461Z,100541.81
2023-06-07T03:03:25.170Z,100556.06
2023-06-07T03:06:30.862Z,100546.72
2023-06-07T03:09:33.629Z,100547.09
2023-06-07T03:12:35.768Z,100549.59
2023-06-07T03:15:38.634Z,100552.47
2023-06-07T03:18:40.890Z,100562.66
2023-06-07T03:21:45.891Z,100562.28
2023-06-07T03:24:48.687Z,100566.75
2023-06-07T03:27:50.938Z,100571.06
2023-06-07T03:30:53.161Z,100566.41
2023-06-07T03:33:55.736Z,100567.44
2023-06-07T03:37:00.260Z,100573.13
2023-06-07T03:40:02.448Z,100569.06
2023-06-07T03:43:04.625Z,100577.63
2023-06-07T03:46:09.997Z,100580.88
2023-06-07T03:49:11.990Z,100575.78
2023-06-07T03:52:14.006Z,100583.50
2023-06-07T03:55:21.204Z,100585.38
2023-06-07T03:58:24.659Z,100580.28
2023-06-07T04:01:28.083Z,100572.94
2023-06-07T04:04:34.073Z,100576.03
2023-06-07T04:07:36.519Z,100570.31
2023-06-07T04:10:38.572Z,100561.91
2023-06-07T04:13:44.264Z,100577.38
2023-06-07T04:16:47.808Z,100581.47
2023-06-07T04:19:56.214Z,100584.28
2023-06-07T04:22:58.366Z,100577.16
2023-06-07T04:26:01.657Z,100576.75
2023-06-07T04:29:04.506Z,100579.00
2023-06-07T04:32:08.231Z,100578.44
2023-06-07T04:35:11.514Z,100582.66
2023-06-07T04:38:23.367Z,100584.09
2023-06-07T04:41:34.400Z,100582.44
2023-06-07T04:44:38.419Z,100576.53
2023-06-07T04:47:48.469Z,100579.75
2023-06-07T04:50:52.656Z,100584.84
2023-06-07T04:53:59.716Z,100585.25
2023-06-07T04:57:02.063Z,100585.47
2023-06-07T05:00:07.729Z,100599.75
2023-06-07T05:03:14.657Z,100591.59
2023-06-07T05:06:18.642Z,100593.22
2023-06-07T05:09:22.137Z,100602.13
2023-06-07T05:12:24.590Z,100589.91
2023-06-07T05:15:26.881Z,100598.06
2023-06-07T05:18:30.051Z,100586.25
2023-06-07T05:21:32.465Z,100585.78
2023-06-07T05:24:34.536Z,100584.16
2023-06-07T05:27:38.037Z,100578.44
2023-06-07T05:30:40.852Z,100583.22
2023-06-07T05:33:42.973Z,100585.63
2023-06-07T05:36:46.778Z,100583.97
2023-06-07T05:39:48.756Z,100582.47
2023-06-07T05:42:51.525Z,100591.97
2023-06-07T05:45:53.672Z,100591.38
2023-06-07T05:48:58.599Z,100593.81
2023-06-07T05:52:03.350Z,100597.34
2023-06-07T05:55:06.126Z,100601.94
2023-06-07T05:58:08.486Z,100597.88
2023-06-07T06:01:12.652Z,100603.03
2023-06-07T06:04:16.850Z,100600.00
2023-06-07T06:07:22.454Z,100602.09
2023-06-07T06:10:25.381Z,100602.91
2023-06-07T06:13:31.737Z,100608.75
2023-06-07T06:16:34.185Z,100593.09
2023-06-07T06:19:37.957Z,100603.50
2023-06-07T06:22:40.480Z,100609.56
2023-06-07T06:25:44.042Z,100601.88
2023-06-07T06:28:46.401Z,100613.00
2023-06-07T06:31:48.508Z,100611.50
2023-06-07T06:34:52.987Z,100609.91
2023-06-07T06:37:55.129Z,100608.41
2023-06-07T06:41:01.471Z,100609.53
2023-06-07T06:44:04.031Z,100612.75
2023-06-07T06:47:06.766Z,100608.69
2023-06-07T06:50:27.027Z,100620.25
2023-06-07T06:53:34.555Z,100610.22
2023-06-07T06:56:41.192Z,100620.03
2023-06-07T06:59:44.086Z,100613.38
2023-06-07T07:02:49.591Z,100610.13
2023-06-07T07:05:53.027Z,100613.38
2023-06-07T07:09:01.827Z,100617.22
2023-06-07T07:12:14.198Z,100624.94
2023-06-07T07:15:32.565Z,100604.50
2023-06-07T07:18:51.871Z,100625.56
2023-06-07T07:22:04.928Z,100627.00
2023-06-07T07:25:07.639Z,100625.28
2023-06-07T07:28:15.878Z,100620.91
2023-06-07T07:31:18.507Z,100627.94
2023-06-07T07:34:21.296Z,100631.31
2023-06-07T07:37:23.772Z,100626.81
2023-06-07T07:40:48.331Z,100631.63
2023-06-07T07:43:51.954Z,100631.63
2023-06-07T07:46:54.261Z,100624.69
2023-06-07T07:49:59.342Z,100629.25
2023-06-07T07:53:07.588Z,100634.59
2023-06-07T07:56:11.021Z,100643.53
2023-06-07T07:59:14.956Z,100637.59
2023-06-07T08:02:17.101Z,100641.59
2023-06-07T08:05:20.044Z,100644.88
2023-06-07T08:08:24.585Z,100632.53
2023-06-07T08:11:30.603Z,100636.97
2023-06-07T08:14:34.496Z,100650.03
2023-06-07T08:17:37.204Z,100639.28
2023-06-07T08:20:39.641Z,100645.53
2023-06-07T08:23:44.879Z,100635.13
2023-06-07T08:26:49.030Z,100634.34
2023-06-07T08:29:52.202Z,100638.94
2023-06-07T08:32:57.224Z,100637.72
2023-06-07T08:36:00.603Z,100640.72
2023-06-07T08:39:03.616Z,100628.44
2023-06-07T08:42:06.950Z,100637.13
2023-06-07T08:45:09.877Z,100640.97
2023-06-07T08:48:14.106Z,100638.50
2023-06-07T08:51:18.938Z,100634.06
2023-06-07T08:54:26.836Z,100630.63
2023-06-07T08:57:33.629Z,100626.50
2023-06-07T09:00:36.557Z,100617.72
2023-06-07T09:03:39.139Z,100615.69
2023-06-07T09:06:45.604Z,100621.50
2023-06-07T09:09:50.902Z,100618.16
2023-06-07T09:12:53.902Z,100626.88
2023-06-07T09:15:58.926Z,100628.59
2023-06-07T09:19:05.368Z,100623.13
2023-06-07T09:25:58.181Z,100621.50
2023-06-07T09:29:14.855Z,100622.44
2023-06-07T09:32:30.428Z,100626.94
2023-06-07T09:35:33.602Z,100624.72
2023-06-07T09:38:40.282Z,100626.25
2023-06-07T09:41:45.012Z,100629.16
2023-06-07T09:44:47.831Z,100637.94
2023-06-07T09:48:05.944Z,100624.63
2023-06-07T09:51:09.713Z,100634.47
2023-06-07T09:55:08.847Z,100627.63
2023-06-07T09:58:28.285Z,100632.53
2023-06-07T10:01:44.797Z,100633.22
2023-06-07T10:05:06.600Z,100622.31
2023-06-07T10:09:00.289Z,100628.81
2023-06-07T10:12:21.536Z,100614.47
2023-06-07T10:15:28.392Z,100613.19
2023-06-07T10:18:31.913Z,100620.47
2023-06-07T10:21:36.461Z,100618.03
2023-06-07T10:25:22.286Z,100615.50
2023-06-07T10:29:10.167Z,100616.78
2023-06-07T10:32:17.072Z,100612.38
2023-06-07T10:35:25.413Z,100617.31
2023-06-07T10:38:32.158Z,100616.03
2023-06-07T10:41:36.757Z,100612.22
2023-06-07T10:44:39.336Z,100606.88
2023-06-07T10:47:41.622Z,100609.31
2023-06-07T10:50:51.103Z,100604.09
2023-06-07T10:53:55.049Z,100611.91
2023-06-07T10:56:57.242Z,100605.97
2023-06-07T11:00:26.308Z,100604.16
2023-06-07T11:03:34.839Z,100607.22
2023-06-07T11:07:15.910Z,100615.69
2023-06-07T11:10:18.333Z,100614.66
2023-06-07T11:13:22.469Z,100609.09
2023-06-07T11:16:53.697Z,100603.91
2023-06-07T11:20:19.064Z,100597.72
2023-06-07T11:27:29.442Z,100610.00
2023-06-07T11:30:39.703Z,100607.09
2023-06-07T11:33:56.698Z,100613.84
2023-06-07T11:37:16.889Z,100609.00
2023-06-07T11:40:22.576Z,100608.72
2023-06-07T11:43:26.788Z,100601.25
2023-06-07T11:46:36.454Z,100597.97
2023-06-07T11:49:39.917Z,100594.63
2023-06-07T11:52:42.671Z,100590.09
2023-06-07T11:55:45.017Z,100593.19
2023-06-07T11:58:47.405Z,100591.25
2023-06-07T12:01:59.809Z,100589.69
2023-06-07T12:05:07.049Z,100574.41
2023-06-07T12:08:14.942Z,100578.78
2023-06-07T12:11:17.903Z,100564.34
2023-06-07T12:14:34.877Z,100572.00
2023-06-07T12:17:40.619Z,100566.66
2023-06-07T12:20:45.463Z,100542.81
2023-06-07T12:23:52.933Z,100536.81
2023-06-07T12:26:58.234Z,100534.72
2023-06-07T12:30:01.310Z,100528.50
2023-06-07T12:33:03.893Z,100525.66
2023-06-07T12:36:09.252Z,100517.88
2023-06-07T12:39:13.335Z,100522.00
2023-06-07T12:42:18.187Z,100520.91
2023-06-07T12:45:20.897Z,100515.34
2023-06-07T12:48:22.917Z,100508.34
2023-06-07T12:51:25.971Z,100518.88
2023-06-07T12:54:29.092Z,100514.81
2023-06-07T12:57:31.171Z,100514.50
2023-06-07T13:00:33.509Z,100525.00
2023-06-07T13:03:38.449Z,100508.59
2023-06-07T13:06:43.332Z,100515.56
2023-06-07T13:09:49.169Z,100515.09
2023-06-07T13:12:51.421Z,100511.84
2023-06-07T13:15:55.938Z,100515.75
2023-06-07T13:19:05.860Z,100509.22
2023-06-07T13:22:15.665Z,100505.81
2023-06-07T13:25:17.946Z,100499.41
2023-06-07T13:28:20.874Z,100499.91
2023-06-07T13:31:23.398Z,100487.59
2023-06-07T13:34:25.989Z,100490.66
2023-06-07T13:37:28.829Z,100492.28
2023-06-07T13:40:31.406Z,100492.41
2023-06-07T13:46:39.287Z,100479.31
2023-06-07T13:49:43.324Z,100487.59
2023-06-07T13:52:47.194Z,100480.25
2023-06-07T13:55:52.278Z,100468.97
2023-06-07T13:58:58.243Z,100475.00
2023-06-07T14:02:02.943Z,100467.69
2023-06-07T14:05:06.585Z,100463.63
2023-06-07T14:08:12.359Z,100473.63
2023-06-07T14:11:15.222Z,100458.88
2023-06-07T14:14:17.789Z,100473.78
2023-06-07T14:17:20.515Z,100454.41
2023-06-07T14:20:22.815Z,100454.03
2023-06-07T14:23:25.269Z,100450.78
2023-06-07T14:26:30.206Z,100457.25
2023-06-07T14:29:33.053Z,100454.84
2023-06-07T14:32:36.778Z,100456.34
2023-06-07T14:35:39.384Z,100450.31
2023-06-07T14:38:43.069Z,100443.41
2023-06-07T14:41:45.458Z,100450.06
2023-06-07T14:44:47.677Z,100447.03
2023-06-07T14:47:49.925Z,100436.03
2023-06-07T14:50:52.126Z,100436.84
2023-06-07T14:53:54.452Z,100433.25
2023-06-07T14:56:57.567Z,100448.03
2023-06-07T14:59:59.900Z,100442.84
2023-06-07T15:03:03.301Z,100439.34
2023-06-07T15:06:06.454Z,100434.97
2023-06-07T15:09:08.840Z,100429.00
2023-06-07T15:12:12.844Z,100426.19
2023-06-07T15:15:17.417Z,100433.00
2023-06-07T15:18:22.008Z,100440.09
2023-06-07T15:21:25.157Z,100435.25
2023-06-07T15:24:27.694Z,100432.03
2023-06-07T15:27:55.633Z,100447.06
2023-06-07T15:31:02.212Z,100452.00
2023-06-07T15:34:04.869Z,100446.66
2023-06-07T15:37:08.041Z,100442.22
2023-06-07T15:40:10.611Z,100442.22
2023-06-07T15:43:15.039Z,100445.44
2023-06-07T15:46:17.777Z,100454.19
2023-06-07T15:49:20.292Z,100465.19
2023-06-07T15:52:23.211Z,100468.28
2023-06-07T15:55:26.696Z,100463.72
2023-06-07T15:58:28.931Z,100462.44
2023-06-07T16:01:32.599Z,100460.81
2023-06-07T16:04:34.816Z,100454.16
2023-06-07T16:07:37.624Z,100457.56
2023-06-07T16:10:41.473Z,100453.94
2023-06-07T16:13:43.647Z,100452.66
2023-06-07T16:16:46.315Z,100448.78
2023-06-07T16:19:50.464Z,100440.31
2023-06-07T16:22:53.707Z,100436.88
2023-06-07T16:25:59.697Z,100449.44
2023-06-07T16:29:01.841Z,100456.44
2023-06-07T16:32:06.314Z,100447.72
2023-06-07T16:35:09.997Z,100442.06
2023-06-07T16:38:12.298Z,100454.59
2023-06-07T16:41:14.783Z,100460.94
2023-06-07T16:44:19.761Z,100456.66
2023-06-07T16:47:22.254Z,100454.59
2023-06-07T16:50:25.526Z,100450.97
2023-06-07T16:53:27.771Z,100453.88
2023-06-07T16:56:30.758Z,100454.31
2023-06-07T16:59:33.379Z,100435.53
2023-06-07T17:02:35.738Z,100446.69
2023-06-07T17:05:38.245Z,100452.84
2023-06-07T17:08:43.738Z,100457.41
2023-06-07T17:11:50.185Z,100462.75
2023-06-07T17:14:52.507Z,100460.59
2023-06-07T17:17:54.879Z,100456.78
2023-06-07T17:20:57.405Z,100458.00
2023-06-07T17:23:59.580Z,100457.34
2023-06-07T17:27:02.530Z,100449.53
2023-06-07T17:30:05.593Z,100457.13
2023-06-07T17:33:09.222Z,100462.72
2023-06-07T17:36:11.928Z,100459.97
2023-06-07T17:39:14.930Z,100467.63
2023-06-07T17:42:22.368Z,100466.97
2023-06-07T17:45:24.982Z,100478.53
2023-06-07T17:48:27.737Z,100482.97
2023-06-07T17:51:32.256Z,100490.00
2023-06-07T17:54:34.646Z,100481.53
2023-06-07T17:57:37.120Z,100493.28
2023-06-07T18:00:39.590Z,100493.38
2023-06-07T18:03:45.929Z,100494.94
2023-06-07T18:06:47.936Z,100507.09
2023-06-07T18:09:50.533Z,100508.44
2023-06-07T18:12:52.606Z,100513.34
2023-06-07T18:15:55.842Z,100507.97
2023-06-07T18:18:58.092Z,100520.88
2023-06-07T18:22:01.351Z,100517.50
2023-06-07T18:25:04.274Z,100506.91
2023-06-07T18:28:07.504Z,100512.66
2023-06-07T18:31:09.512Z,100517.84
2023-06-07T18:34:17.797Z,100507.94
2023-06-07T18:37:20.209Z,100519.59
2023-06-07T18:40:23.030Z,100522.00
2023-06-07T18:43:25.364Z,100516.84
2023-06-07T18:46:27.507Z,100519.06
2023-06-07T18:49:31.951Z,100519.69
2023-06-07T18:52:37.442Z,100527.81
2023-06-07T18:55:39.685Z,100531.69
2023-06-07T18:58:42.197Z,100535.06
2023-06-07T19:01:51.754Z,100536.63
2023-06-07T19:04:54.712Z,100544.03
2023-06-07T19:07:59.455Z,100553.75
2023-06-07T19:11:02.055Z,100551.06
2023-06-07T19:14:06.035Z,100540.50
2023-06-07T19:17:08.497Z,100547.22
2023-06-07T19:20:14.354Z,100549.25
2023-06-07T19:23:16.980Z,100546.38
2023-06-07T19:26:19.744Z,100545.91
2023-06-07T19:29:22.354Z,100541.75
2023-06-07T19:32:24.708Z,100537.22
2023-06-07T19:35:27.452Z,100544.41
2023-06-07T19:38:31.133Z,100547.03
2023-06-07T19:41:33.703Z,100556.31
2023-06-07T19:44:38.957Z,100555.72
2023-06-07T19:47:42.651Z,100556.31
2023-06-07T19:50:45.066Z,100553.53
2023-06-07T19:53:47.758Z,100553.28
2023-06-07T19:56:50.043Z,100555.09
2023-06-07T19:59:53.382Z,100561.63
2023-06-07T20:02:55.742Z,100550.75
2023-06-07T20:05:58.294Z,100545.88
2023-06-07T20:09:00.483Z,100551.41
2023-06-07T20:12:03.709Z,100550.75
2023-06-07T20:15:06.642Z,100542.63
2023-06-07T20:18:09.001Z,100537.09
2023-06-07T20:21:11.246Z,100538.78
2023-06-07T20:24:14.359Z,100537.59
2023-06-07T20:27:16.510Z,100533.31
2023-06-07T20:30:19.838Z,100529.03
2023-06-07T20:33:22.082Z,100532.13
2023-06-07T20:36:24.142Z,100527.84
2023-06-07T20:39:27.519Z,100528.66
2023-06-07T20:42:32.247Z,100528.88
2023-06-07T20:45:34.479Z,100535.97
2023-06-07T20:48:37.883Z,100533.53
2023-06-07T20:51:40.124Z,100540.00
2023-06-07T20:54:42.230Z,100541.31
2023-06-07T20:57:44.380Z,100544.38
2023-06-07T21:00:46.894Z,100547.66
2023-06-07T21:03:51.708Z,100548.94
2023-06-07T21:06:55.922Z,100546.31
2023-06-07T21:09:58.003Z,100549.78
2023-06-07T21:13:01.349Z,100532.88
2023-06-07T21:16:03.665Z,100543.88
2023-06-07T21:19:07.619Z,100539.81
2023-06-07T21:22:09.795Z,100539.91
2023-06-07T21:25:13.867Z,100533.78
2023-06-07T21:28:16.595Z,100538.31
2023-06-07T21:31:19.028Z,100539.97
2023-06-07T21:34:22.495Z,100541.41
2023-06-07T21:37:24.724Z,100535.31
2023-06-07T21:40:28.133Z,100525.50
2023-06-07T21:43:30.352Z,100520.00
2023-06-07T21:46:32.371Z,100526.72
2023-06-07T21:49:34.758Z,100523.47
2023-06-07T21:52:36.873Z,100519.03
2023-06-07T21:55:38.971Z,100525.38
2023-06-07T21:58:41.055Z,100521.09
2023-06-07T22:01:43.198Z,100524.38
2023-06-07T22:04:47.833Z,100520.09
2023-06-07T22:07:50.493Z,100524.22
2023-06-07T22:10:52.426Z,100529.75
2023-06-07T22:13:58.669Z,100524.06
2023-06-07T22:17:04.867Z,100530.78
2023-06-07T22:20:08.152Z,100524.22
2023-06-07T22:23:11.296Z,100526.00
2023-06-07T22:26:16.494Z,100528.28
2023-06-07T22:29:19.571Z,100536.63
2023-06-07T22:32:29.204Z,100533.97
2023-06-07T22:35:33.972Z,100540.69
2023-06-07T22:38:37.046Z,100543.38
2023-06-07T22:41:39.635Z,100547.66
2023-06-07T22:44:41.518Z,100548.94
2023-06-07T22:47:44.308Z,100545.91
2023-06-07T22:50:48.902Z,100532.50
2023-06-07T22:53:51.374Z,100529.97
2023-06-07T22:56:53.599Z,100535.50
2023-06-07T22:59:55.782Z,100529.66
2023-06-07T23:03:00.673Z,100526.78
2023-06-07T23:06:03.460Z,100533.72
2023-06-07T23:09:07.161Z,100520.75
2023-06-07T23:12:10.451Z,100525.78
2023-06-07T23:15:19.838Z,100525.22
2023-06-07T23:18:21.972Z,100513.63
2023-06-07T23:21:27.488Z,100514.44
2023-06-07T23:24:30.791Z,100520.97
2023-06-07T23:27:33.883Z,100508.16
2023-06-07T23:30:39.404Z,100503.44
2023-06-07T23:33:43.312Z,100514.84
2023-06-07T23:36:45.961Z,100508.75
2023-06-07T23:39:48.828Z,100505.13
2023-06-07T23:42:53.766Z,100497.78
2023-06-07T23:45:56.479Z,100505.94
2023-06-07T23:49:00.112Z,100509.75
2023-06-07T23:52:03.599Z,100509.19
2023-06-07T23:55:06.551Z,100508.16
2023-06-07T23:58:08.913Z,100511.63
